createdAt,value
2023-03-10T00:01:53.853Z,32.57
2023-03-10T00:04:24.478Z,32.83
2023-03-10T00:06:58.538Z,33.07
2023-03-10T00:09:33.298Z,35.33
2023-03-10T00:12:03.071Z,32.27
2023-03-10T00:14:33.943Z,32.87
2023-03-10T00:17:02.470Z,30.53
2023-03-10T00:19:30.927Z,32.80
2023-03-10T00:22:07.176Z,32.80
2023-03-10T00:24:41.494Z,31.67
2023-03-10T00:27:16.874Z,33.33
2023-03-10T00:29:52.673Z,30.17
2023-03-10T00:32:26.631Z,33.67
2023-03-10T00:34:55.268Z,31.27
2023-03-10T00:37:28.481Z,32.40
2023-03-10T00:39:58.366Z,33.43
2023-03-10T00:42:28.796Z,29.57
2023-03-10T00:44:59.226Z,32.73
2023-03-10T00:47:30.449Z,34.23
2023-03-10T00:50:13.919Z,34.00
2023-03-10T00:52:42.606Z,36.00
2023-03-10T00:55:11.228Z,35.47
2023-03-10T00:57:44.317Z,36.37
2023-03-10T01:00:16.875Z,40.93
2023-03-10T01:02:48.282Z,42.20
2023-03-10T01:05:16.779Z,38.67
2023-03-10T01:07:51.387Z,41.07
2023-03-10T01:10:19.902Z,42.43
2023-03-10T01:12:51.289Z,40.17
2023-03-10T01:15:24.306Z,43.47
2023-03-10T01:17:57.704Z,41.50
2023-03-10T01:20:29.342Z,42.60
2023-03-10T01:23:02.056Z,40.83
2023-03-10T01:25:31.017Z,38.23
2023-03-10T01:28:02.111Z,38.53
2023-03-10T01:30:36.187Z,40.70
2023-03-10T01:33:08.244Z,39.73
2023-03-10T01:35:37.161Z,37.37
2023-03-10T01:38:09.561Z,36.50
2023-03-10T01:40:40.106Z,39.67
2023-03-10T01:43:36.668Z,37.70
2023-03-10T01:46:48.321Z,40.37
2023-03-10T01:49:31.219Z,38.10
2023-03-10T01:52:10.451Z,41.60
2023-03-10T01:54:49.659Z,38.40
2023-03-10T01:57:23.575Z,38.80
2023-03-10T01:59:54.918Z,35.77
2023-03-10T02:02:27.974Z,38.87
2023-03-10T02:05:00.924Z,36.27
2023-03-10T02:07:31.623Z,33.53
2023-03-10T02:10:01.026Z,31.63
2023-03-10T02:12:32.511Z,33.37
2023-03-10T02:15:05.520Z,32.37
2023-03-10T02:17:35.657Z,27.00
2023-03-10T02:20:17.515Z,26.87
2023-03-10T02:22:48.441Z,26.67
2023-03-10T02:25:31.389Z,27.40
2023-03-10T02:28:06.218Z,27.27
2023-03-10T02:30:40.374Z,28.60
2023-03-10T02:33:14.454Z,24.37
2023-03-10T02:35:43.152Z,26.10
2023-03-10T02:38:18.511Z,28.03
2023-03-10T02:40:49.290Z,24.77
2023-03-10T02:43:24.892Z,25.00
2023-03-10T02:46:03.306Z,24.70
2023-03-10T02:48:38.878Z,25.07
2023-03-10T02:51:15.734Z,27.80
2023-03-10T02:53:48.450Z,28.03
2023-03-10T02:56:17.051Z,29.83
2023-03-10T02:58:46.872Z,26.90
2023-03-10T03:01:15.845Z,25.47
2023-03-10T03:03:58.074Z,23.23
2023-03-10T03:06:28.025Z,24.70
2023-03-10T03:08:58.383Z,26.37
2023-03-10T03:11:27.940Z,26.90
2023-03-10T03:14:06.726Z,26.77
2023-03-10T03:16:39.293Z,27.73
2023-03-10T03:19:08.297Z,26.10
2023-03-10T03:21:36.722Z,26.03
2023-03-10T03:24:10.886Z,26.63
2023-03-10T03:26:44.319Z,26.97
2023-03-10T03:29:14.337Z,28.07
2023-03-10T03:31:48.857Z,29.17
2023-03-10T03:34:17.933Z,29.50
2023-03-10T03:36:46.351Z,29.20
2023-03-10T03:39:17.832Z,26.43
2023-03-10T03:41:46.571Z,28.70
2023-03-10T03:44:25.806Z,28.90
2023-03-10T03:46:54.420Z,30.23
2023-03-10T03:49:26.245Z,27.53
2023-03-10T03:51:54.952Z,31.23
2023-03-10T03:54:23.520Z,26.77
2023-03-10T03:56:54.025Z,32.17
2023-03-10T03:59:28.578Z,31.50
2023-03-10T04:01:59.965Z,34.57
2023-03-10T04:04:28.662Z,30.30
2023-03-10T04:07:03.375Z,36.43
2023-03-10T04:09:42.092Z,33.03
2023-03-10T04:12:16.272Z,34.03
2023-03-10T04:14:48.538Z,36.13
2023-03-10T04:17:19.306Z,39.30
2023-03-10T04:20:04.533Z,39.90
2023-03-10T04:22:37.026Z,38.73
2023-03-10T04:25:07.242Z,39.17
2023-03-10T04:27:41.154Z,40.97
2023-03-10T04:30:16.290Z,40.77
2023-03-10T04:32:46.661Z,43.27
2023-03-10T04:35:20.408Z,44.47
2023-03-10T04:37:48.899Z,48.00
2023-03-10T04:43:07.618Z,45.97
2023-03-10T04:45:42.350Z,45.10
2023-03-10T04:48:10.764Z,47.37
2023-03-10T04:50:44.289Z,48.70
2023-03-10T04:53:20.452Z,49.50
2023-03-10T04:55:53.030Z,45.83
2023-03-10T04:58:23.158Z,45.83
2023-03-10T05:01:03.585Z,50.90
2023-03-10T05:03:54.806Z,50.93
2023-03-10T05:06:29.349Z,49.93
2023-03-10T05:09:08.032Z,50.60
2023-03-10T05:11:36.603Z,54.20
2023-03-10T05:14:09.484Z,52.20
2023-03-10T05:16:49.585Z,55.23
2023-03-10T05:19:21.556Z,58.90
2023-03-10T05:21:58.073Z,63.60
2023-03-10T05:24:28.896Z,60.53
2023-03-10T05:27:04.581Z,65.03
2023-03-10T05:29:33.056Z,72.10
2023-03-10T05:32:06.721Z,66.33
2023-03-10T05:34:35.379Z,73.90
2023-03-10T05:37:08.577Z,73.30
2023-03-10T05:39:37.094Z,79.73
2023-03-10T05:42:06.064Z,81.53
2023-03-10T05:44:37.070Z,77.63
2023-03-10T05:47:09.551Z,79.80
2023-03-10T05:49:39.647Z,75.13
2023-03-10T05:52:10.488Z,79.83
2023-03-10T05:54:39.197Z,78.03
2023-03-10T05:57:07.755Z,75.73
2023-03-10T05:59:36.408Z,74.27
2023-03-10T06:02:06.342Z,72.97
2023-03-10T06:04:34.782Z,71.37
2023-03-10T06:07:06.489Z,64.37
2023-03-10T06:09:38.187Z,64.80
2023-03-10T06:12:07.668Z,63.13
2023-03-10T06:14:36.506Z,61.63
2023-03-10T06:17:09.790Z,60.30
2023-03-10T06:19:38.440Z,54.47
2023-03-10T06:22:07.133Z,52.37
2023-03-10T06:24:35.701Z,52.47
2023-03-10T06:27:04.355Z,54.23
2023-03-10T06:29:33.193Z,53.50
2023-03-10T06:32:05.412Z,49.57
2023-03-10T06:34:35.566Z,49.50
2023-03-10T06:37:03.963Z,47.47
2023-03-10T06:39:32.455Z,49.77
2023-03-10T06:42:02.566Z,48.90
2023-03-10T06:44:31.180Z,43.57
2023-03-10T06:46:59.627Z,42.87
2023-03-10T06:49:31.541Z,47.33
2023-03-10T06:52:01.884Z,44.43
2023-03-10T06:54:30.348Z,41.63
2023-03-10T06:56:58.920Z,44.73
2023-03-10T06:59:32.233Z,45.17
2023-03-10T07:02:04.246Z,40.00
2023-03-10T07:04:32.719Z,42.03
2023-03-10T07:07:02.626Z,39.60
2023-03-10T07:09:41.512Z,40.33
2023-03-10T07:12:10.510Z,39.17
2023-03-10T07:14:38.962Z,41.40
2023-03-10T07:17:07.502Z,41.67
2023-03-10T07:19:36.183Z,40.97
2023-03-10T07:22:06.148Z,42.43
2023-03-10T07:24:34.778Z,43.27
2023-03-10T07:27:04.243Z,43.97
2023-03-10T07:29:32.817Z,43.10
2023-03-10T07:32:01.453Z,40.67
2023-03-10T07:34:29.818Z,41.43
2023-03-10T07:36:58.270Z,40.90
2023-03-10T07:39:28.086Z,40.03
2023-03-10T07:41:56.929Z,43.73
2023-03-10T07:44:25.763Z,39.17
2023-03-10T07:46:54.380Z,37.53
2023-03-10T07:49:22.923Z,38.53
2023-03-10T07:51:51.398Z,37.23
2023-03-10T07:54:19.831Z,39.87
2023-03-10T07:56:51.157Z,39.83
2023-03-10T07:59:19.594Z,66.10
2023-03-10T08:01:48.104Z,39.23
2023-03-10T08:04:17.253Z,42.27
2023-03-10T08:06:47.442Z,40.23
2023-03-10T08:09:15.854Z,36.17
2023-03-10T08:11:44.586Z,37.10
2023-03-10T08:14:15.575Z,35.70
2023-03-10T08:16:43.977Z,36.77
2023-03-10T08:19:12.361Z,38.17
2023-03-10T08:21:41.072Z,39.97
2023-03-10T08:24:09.606Z,37.57
2023-03-10T08:26:38.891Z,38.93
2023-03-10T08:29:07.430Z,37.23
2023-03-10T08:31:37.594Z,37.53
2023-03-10T08:34:06.263Z,40.23
2023-03-10T08:36:35.291Z,40.57
2023-03-10T08:39:05.849Z,40.87
2023-03-10T08:41:37.465Z,41.27
2023-03-10T08:44:07.696Z,43.50
2023-03-10T08:46:37.803Z,44.50
2023-03-10T08:49:06.524Z,42.87
2023-03-10T08:51:35.332Z,43.73
2023-03-10T08:54:04.373Z,44.40
2023-03-10T08:56:33.158Z,44.93
2023-03-10T08:59:02.136Z,46.63
2023-03-10T09:01:33.182Z,47.70
2023-03-10T09:04:04.633Z,46.40
2023-03-10T09:06:33.794Z,45.03
2023-03-10T09:09:02.622Z,45.70
2023-03-10T09:11:36.988Z,48.17
2023-03-10T09:14:07.622Z,47.97
2023-03-10T09:16:36.548Z,48.40
2023-03-10T09:19:06.646Z,46.80
2023-03-10T09:21:35.098Z,48.03
2023-03-10T09:24:05.843Z,41.37
2023-03-10T09:26:34.608Z,41.57
2023-03-10T09:29:03.699Z,44.53
2023-03-10T09:31:34.991Z,41.43
2023-03-10T09:34:05.510Z,42.27
2023-03-10T09:36:34.184Z,40.13
2023-03-10T09:39:03.458Z,49.33
2023-03-10T09:42:11.886Z,42.77
2023-03-10T09:44:43.859Z,47.93
2023-03-10T09:47:27.786Z,44.67
2023-03-10T09:50:24.532Z,41.90
2023-03-10T09:53:02.101Z,40.60
2023-03-10T09:55:38.257Z,39.50
2023-03-10T09:58:19.476Z,43.77
2023-03-10T10:00:48.112Z,44.37
2023-03-10T10:03:22.778Z,41.33
2023-03-10T10:05:56.453Z,42.17
2023-03-10T10:08:29.579Z,40.03
2023-03-10T10:11:00.187Z,42.93
2023-03-10T10:13:31.347Z,41.80
2023-03-10T10:16:24.441Z,41.10
2023-03-10T10:19:01.897Z,38.87
2023-03-10T10:21:45.433Z,42.37
2023-03-10T10:24:14.910Z,41.40
2023-03-10T10:26:43.410Z,40.43
2023-03-10T10:29:17.735Z,36.00
2023-03-10T10:32:09.711Z,39.00
2023-03-10T10:34:40.590Z,45.77
2023-03-10T10:37:36.247Z,37.93
2023-03-10T10:40:24.981Z,38.97
2023-03-10T10:42:55.097Z,39.23
2023-03-10T10:45:31.273Z,36.53
2023-03-10T10:47:59.741Z,35.50
2023-03-10T10:50:30.892Z,38.63
2023-03-10T10:53:23.183Z,36.77
2023-03-10T10:56:04.582Z,38.47
2023-03-10T10:58:36.839Z,37.97
2023-03-10T11:01:08.761Z,35.90
2023-03-10T11:03:39.724Z,35.67
2023-03-10T11:06:29.153Z,37.43
2023-03-10T11:09:08.890Z,37.97
2023-03-10T11:11:46.532Z,39.07
2023-03-10T11:14:34.115Z,37.77
2023-03-10T11:17:08.547Z,38.47
2023-03-10T11:19:57.232Z,36.53
2023-03-10T11:22:38.591Z,37.53
2023-03-10T11:25:28.813Z,40.80
2023-03-10T11:28:10.782Z,40.17
2023-03-10T11:30:43.544Z,44.20
2023-03-10T11:33:22.933Z,37.43
2023-03-10T11:35:55.279Z,37.23
2023-03-10T11:38:36.190Z,35.50
2023-03-10T11:41:12.611Z,38.37
2023-03-10T11:43:56.340Z,34.17
2023-03-10T11:46:29.958Z,33.13
2023-03-10T11:49:08.963Z,36.73
2023-03-10T11:51:41.776Z,35.03
2023-03-10T11:54:18.409Z,35.83
2023-03-10T11:56:50.061Z,37.90
2023-03-10T11:59:23.387Z,35.37
2023-03-10T12:01:56.558Z,38.13
2023-03-10T12:04:32.103Z,35.00
2023-03-10T12:07:06.019Z,36.43
2023-03-10T12:09:42.363Z,35.93
2023-03-10T12:12:17.036Z,37.00
2023-03-10T12:14:47.260Z,36.73
2023-03-10T12:17:17.893Z,37.57
2023-03-10T12:20:26.669Z,37.10
2023-03-10T12:22:56.538Z,36.03
2023-03-10T12:25:45.920Z,33.70
2023-03-10T12:28:30.884Z,32.17
2023-03-10T12:31:01.318Z,36.50
2023-03-10T12:34:14.245Z,34.10
2023-03-10T12:36:46.148Z,32.40
2023-03-10T12:39:40.193Z,33.23
2023-03-10T12:42:34.997Z,37.73
2023-03-10T12:45:18.424Z,37.47
2023-03-10T12:47:55.431Z,36.17
2023-03-10T12:50:42.101Z,35.10
2023-03-10T12:53:32.188Z,34.10
2023-03-10T12:56:37.327Z,33.33
2023-03-10T12:59:16.227Z,36.20
2023-03-10T13:01:55.835Z,35.70
2023-03-10T13:04:26.666Z,34.50
2023-03-10T13:07:03.779Z,31.30
2023-03-10T13:09:39.080Z,33.73
2023-03-10T13:12:16.529Z,32.93
2023-03-10T13:14:46.211Z,32.03
2023-03-10T13:17:26.048Z,34.70
2023-03-10T13:20:12.675Z,31.33
2023-03-10T13:22:43.481Z,30.93
2023-03-10T13:25:15.986Z,30.70
2023-03-10T13:27:44.473Z,32.20
2023-03-10T13:30:20.041Z,28.90
2023-03-10T13:32:59.447Z,29.67
2023-03-10T13:35:33.740Z,31.73
2023-03-10T13:38:13.987Z,29.13
2023-03-10T13:40:45.634Z,30.47
2023-03-10T13:43:39.080Z,27.90
2023-03-10T13:46:16.173Z,27.30
2023-03-10T13:48:47.317Z,27.67
2023-03-10T13:51:23.831Z,32.30
2023-03-10T13:53:55.274Z,25.53
2023-03-10T13:56:27.849Z,25.20
2023-03-10T13:58:59.336Z,28.90
2023-03-10T14:01:33.998Z,29.63
2023-03-10T14:04:09.002Z,29.30
2023-03-10T14:06:39.292Z,27.97
2023-03-10T14:09:16.140Z,29.53
2023-03-10T14:11:47.069Z,27.27
2023-03-10T14:14:30.455Z,28.73
2023-03-10T14:17:01.249Z,28.63
2023-03-10T14:19:51.532Z,30.67
2023-03-10T14:22:37.896Z,25.77
2023-03-10T14:25:16.653Z,24.93
2023-03-10T14:27:48.332Z,27.87
2023-03-10T14:30:26.329Z,26.50
2023-03-10T14:32:56.207Z,27.20
2023-03-10T14:35:29.501Z,26.87
2023-03-10T14:37:58.905Z,25.47
2023-03-10T14:40:28.116Z,25.57
2023-03-10T14:43:02.065Z,24.93
2023-03-10T14:45:33.462Z,28.27
2023-03-10T14:48:05.679Z,25.60
2023-03-10T14:50:35.695Z,27.63
2023-03-10T14:53:04.515Z,25.27
2023-03-10T14:55:32.870Z,27.70
2023-03-10T14:58:04.581Z,25.27
2023-03-10T15:00:34.194Z,26.57
2023-03-10T15:03:05.332Z,26.60
2023-03-10T15:05:47.776Z,25.73
2023-03-10T15:08:17.594Z,26.10
2023-03-10T15:10:49.797Z,29.47
2023-03-10T15:13:19.939Z,31.50
2023-03-10T15:15:49.796Z,31.60
2023-03-10T15:18:21.459Z,31.80
2023-03-10T15:20:51.636Z,33.37
2023-03-10T15:23:22.430Z,35.10
2023-03-10T15:25:52.040Z,34.83
2023-03-10T15:28:20.560Z,38.10
2023-03-10T15:30:49.559Z,43.87
2023-03-10T15:33:18.399Z,41.70
2023-03-10T15:35:46.919Z,39.47
2023-03-10T15:38:17.574Z,38.27
2023-03-10T15:40:46.095Z,37.53
2023-03-10T15:43:14.876Z,38.10
2023-03-10T15:45:46.749Z,39.70
2023-03-10T15:48:15.200Z,37.20
2023-03-10T15:50:46.990Z,34.77
2023-03-10T15:53:17.231Z,31.30
2023-03-10T15:55:45.864Z,34.90
2023-03-10T15:58:14.493Z,37.83
2023-03-10T16:00:44.055Z,37.93
2023-03-10T16:03:12.696Z,37.47
2023-03-10T16:05:48.941Z,32.23
2023-03-10T16:08:19.436Z,30.47
2023-03-10T16:10:53.858Z,30.33
2023-03-10T16:13:23.869Z,30.73
2023-03-10T16:15:53.440Z,31.33
2023-03-10T16:18:27.229Z,29.63
2023-03-10T16:21:00.805Z,30.20
2023-03-10T16:23:32.936Z,30.40
2023-03-10T16:26:12.650Z,32.80
2023-03-10T16:28:45.890Z,27.77
2023-03-10T16:31:16.718Z,30.77
2023-03-10T16:33:50.357Z,32.43
2023-03-10T16:36:21.206Z,26.63
2023-03-10T16:38:53.679Z,28.23
2023-03-10T16:41:24.228Z,31.20
2023-03-10T16:43:54.830Z,33.87
2023-03-10T16:46:26.358Z,29.13
2023-03-10T16:49:04.711Z,31.20
2023-03-10T16:51:37.666Z,29.43
2023-03-10T16:54:11.432Z,26.30
2023-03-10T16:56:43.463Z,26.20
2023-03-10T16:59:16.924Z,22.10
2023-03-10T17:01:46.770Z,24.50
2023-03-10T17:04:15.561Z,20.10
2023-03-10T17:06:45.050Z,24.00
2023-03-10T17:09:16.197Z,24.67
2023-03-10T17:11:47.933Z,29.77
2023-03-10T17:14:18.054Z,25.40
2023-03-10T17:16:48.432Z,21.03
2023-03-10T17:19:19.851Z,25.13
2023-03-10T17:21:52.379Z,20.57
2023-03-10T17:24:23.488Z,24.00
2023-03-10T17:26:51.938Z,26.23
2023-03-10T17:29:20.682Z,25.70
2023-03-10T17:31:50.789Z,21.57
2023-03-10T17:34:20.783Z,20.73
2023-03-10T17:36:51.780Z,24.83
2023-03-10T17:39:23.725Z,21.80
2023-03-10T17:41:52.199Z,24.70
2023-03-10T17:44:31.646Z,19.63
2023-03-10T17:47:00.023Z,21.80
2023-03-10T17:49:33.648Z,20.13
2023-03-10T17:52:02.023Z,17.90
2023-03-10T17:54:34.351Z,23.00
2023-03-10T17:57:03.853Z,18.20
2023-03-10T17:59:33.466Z,20.87
2023-03-10T18:02:04.059Z,19.33
2023-03-10T18:04:33.627Z,20.13
2023-03-10T18:07:02.147Z,17.07
2023-03-10T18:09:31.948Z,18.20
2023-03-10T18:12:00.482Z,13.77
2023-03-10T18:14:32.032Z,10.70
2023-03-10T18:17:02.844Z,13.77
2023-03-10T18:19:31.623Z,12.10
2023-03-10T18:22:00.287Z,8.03
2023-03-10T18:24:29.084Z,10.70
2023-03-10T18:26:58.857Z,8.47
2023-03-10T18:29:30.146Z,8.07
2023-03-10T18:31:58.544Z,7.30
2023-03-10T18:34:27.674Z,6.97
2023-03-10T18:36:56.264Z,7.57
2023-03-10T18:39:25.171Z,3.73
2023-03-10T18:41:55.180Z,5.67
2023-03-10T18:44:25.023Z,8.17
2023-03-10T18:46:53.484Z,6.40
2023-03-10T18:49:21.864Z,7.17
2023-03-10T18:51:56.583Z,7.27
2023-03-10T18:54:28.136Z,6.53
2023-03-10T18:56:59.366Z,7.20
2023-03-10T18:59:30.268Z,7.83
2023-03-10T19:01:59.306Z,7.17
2023-03-10T19:04:28.981Z,5.87
2023-03-10T19:06:57.791Z,5.10
2023-03-10T19:09:29.604Z,6.43
2023-03-10T19:11:58.160Z,7.00
2023-03-10T19:14:27.945Z,8.77
2023-03-10T19:16:56.344Z,7.20
2023-03-10T19:19:25.311Z,9.20
2023-03-10T19:21:53.831Z,10.00
2023-03-10T19:24:22.293Z,7.73
2023-03-10T19:26:50.631Z,6.63
2023-03-10T19:29:19.096Z,8.43
2023-03-10T19:31:48.842Z,6.47
2023-03-10T19:34:17.625Z,4.73
2023-03-10T19:36:46.253Z,7.53
2023-03-10T19:39:15.701Z,6.90
2023-03-10T19:41:44.029Z,3.20
2023-03-10T19:44:12.599Z,4.00
2023-03-10T19:46:41.085Z,3.33
2023-03-10T19:49:10.888Z,4.20
2023-03-10T19:51:39.467Z,3.57
2023-03-10T19:54:07.962Z,5.03
2023-03-10T19:56:39.149Z,4.03
2023-03-10T19:59:10.324Z,3.70
2023-03-10T20:01:40.505Z,3.47
2023-03-10T20:04:11.434Z,1.67
2023-03-10T20:06:39.848Z,3.60
2023-03-10T20:09:10.501Z,4.67
2023-03-10T20:11:40.257Z,2.73
2023-03-10T20:14:09.466Z,3.20
2023-03-10T20:16:38.184Z,6.63
2023-03-10T20:19:06.944Z,7.93
2023-03-10T20:21:36.779Z,7.43
2023-03-10T20:24:06.327Z,3.90
2023-03-10T20:26:36.153Z,3.53
2023-03-10T20:29:04.595Z,4.97
2023-03-10T20:31:34.336Z,7.70
2023-03-10T20:34:03.041Z,5.67
2023-03-10T20:36:31.735Z,4.80
2023-03-10T20:39:01.471Z,4.13
2023-03-10T20:41:30.115Z,2.63
2023-03-10T20:44:00.634Z,3.80
2023-03-10T20:46:29.297Z,4.60
2023-03-10T20:48:58.037Z,3.03
2023-03-10T20:51:26.614Z,2.83
2023-03-10T20:53:56.922Z,3.03
2023-03-10T20:56:30.346Z,3.37
2023-03-10T20:59:01.728Z,4.90
2023-03-10T21:01:31.227Z,5.77
2023-03-10T21:03:59.871Z,5.13
2023-03-10T21:06:29.224Z,5.70
2023-03-10T21:08:58.118Z,3.07
2023-03-10T21:11:29.296Z,12.77
2023-03-10T21:13:58.241Z,5.60
2023-03-10T21:16:26.734Z,6.97
2023-03-10T21:18:55.550Z,7.20
2023-03-10T21:21:24.027Z,6.83
2023-03-10T21:23:52.387Z,5.13
2023-03-10T21:26:22.560Z,9.23
2023-03-10T21:28:52.337Z,10.90
2023-03-10T21:31:20.869Z,8.33
2023-03-10T21:33:50.214Z,8.73
2023-03-10T21:36:21.333Z,8.33
2023-03-10T21:38:50.554Z,6.83
2023-03-10T21:41:21.858Z,10.83
2023-03-10T21:43:52.088Z,7.70
2023-03-10T21:46:20.701Z,10.73
2023-03-10T21:48:49.548Z,9.37
2023-03-10T21:51:22.125Z,12.20
2023-03-10T21:53:51.105Z,7.40
2023-03-10T21:56:22.175Z,8.20
2023-03-10T21:58:52.377Z,8.27
2023-03-10T22:01:22.434Z,8.00
2023-03-10T22:03:51.857Z,10.57
2023-03-10T22:06:20.323Z,12.50
2023-03-10T22:08:48.834Z,9.37
2023-03-10T22:11:17.631Z,10.77
2023-03-10T22:13:46.331Z,14.97
2023-03-10T22:16:18.428Z,13.87
2023-03-10T22:18:49.475Z,10.17
2023-03-10T22:21:18.824Z,9.10
2023-03-10T22:23:47.428Z,10.40
2023-03-10T22:26:24.922Z,10.57
2023-03-10T22:28:53.917Z,7.43
2023-03-10T22:31:23.818Z,9.47
2023-03-10T22:33:52.258Z,6.87
2023-03-10T22:36:20.688Z,8.13
2023-03-10T22:38:49.231Z,8.60
2023-03-10T22:41:18.044Z,8.53
2023-03-10T22:43:46.460Z,6.67
2023-03-10T22:46:17.387Z,6.17
2023-03-10T22:48:47.348Z,6.90
2023-03-10T22:51:19.358Z,7.97
2023-03-10T22:53:48.061Z,9.23
2023-03-10T22:56:20.101Z,7.37
2023-03-10T22:58:48.476Z,6.17
2023-03-10T23:01:16.987Z,5.50
2023-03-10T23:03:46.930Z,4.77
2023-03-10T23:06:15.964Z,5.07
2023-03-10T23:08:46.460Z,8.50
2023-03-10T23:11:19.960Z,5.27
2023-03-10T23:13:48.779Z,5.73
2023-03-10T23:16:19.927Z,8.67
2023-03-10T23:18:50.020Z,10.67
2023-03-10T23:21:18.608Z,5.60
2023-03-10T23:23:48.175Z,5.37
2023-03-10T23:26:17.027Z,9.27
2023-03-10T23:28:45.544Z,6.13
2023-03-10T23:31:15.747Z,8.30
2023-03-10T23:33:45.577Z,5.77
2023-03-10T23:36:15.754Z,7.73
2023-03-10T23:38:44.425Z,10.90
2023-03-10T23:41:13.314Z,4.60
2023-03-10T23:43:42.445Z,6.47
2023-03-10T23:46:11.034Z,6.33
2023-03-10T23:48:39.438Z,8.03
2023-03-10T23:51:15.902Z,8.53
2023-03-10T23:53:45.201Z,8.17
2023-03-10T23:56:13.758Z,5.50
2023-03-10T23:58:42.670Z,6.30
